Aérodrome :
LOGIN :

S'inscrire | Disclaimer

   EN    FR    IT 

 










Légende :    VFR   VFR Marginal   IFR   IFR Intensif   IFR Très Intensif
Visi : 
Plafond : 
>= 8 km
>= 3000ft
5 à 8 km
1000 à 3000 ft
1500m à 5 km
500 à 1000 ft
800 à 1500m
200 à 500 ft
< 800m
< 200 ft
Symboles :   Orages  Brouillard  Fortes neiges  Fortes précipitations  Vent > 20 kt
SIGMETs :   Divers  Orages  Givrage  Turbulence  Onde Orograph.  Cendres Volcan.






- Altitude de l'aérodrome : 154 ft
- Code IATA : SZZ


EPSC - Szczecin Goleniow

DERNIER METAR :
  • 220130Z 33006KT 9999 SCT005 BKN009 02/01 Q1020

METARs EXPIRÉS :
  • 220100Z 33009KT 9999 SCT006 BKN013 02/01 Q1019
  • 220030Z 31008KT 9999 SCT007 BKN010 02/01 Q1019
  • 220000Z 31009KT 9999 SCT005 OVC008 02/01 Q1019
  • 212330Z 32010KT 290V350 9999 -RA FEW003 OVC005 02/01 Q1019
  • 212300Z 30009KT 9999 FEW003 OVC004 02/02 Q1019

TAF TAF EPSC
Valide du 22 à 00h jusqu'au 23 à 00h UTC


212330Z 2200/2224 32010KT 9999 BKN009
BECMG 2200/2202 CAVOK
BECMG 2214/2216 VRB02KT
BECMG 2221/2224 3000 BR BKN006



MET'MAP, la Météo Aéronautique d'un coup d'oeil ! - Copyright ORBIFLY Décembre 2007 - Disclaimer

ORBIFLY MET'MAP TEAM :

Programmation & Développement : Alexandra Zaïnal
Sur une idée originale de : Baudouin d'Aumeries
Assistance à la programmation : Marc-Olivier Méhu
Soutien technique & logistique : Manuel Goepfert

Contact : metmap@orbifly.com




SOURCES & CREDITS :

   NOAA